sensor_id;sensor_type;location;lat;lon;timestamp;temperature;humidity
25983;DHT22;13773;48.868;10.730;2022-11-20T00:01:53;3.00;99.90
25983;DHT22;13773;48.868;10.730;2022-11-20T00:04:19;3.00;99.90
25983;DHT22;13773;48.868;10.730;2022-11-20T00:06:45;3.00;99.90
25983;DHT22;13773;48.868;10.730;2022-11-20T00:09:12;3.00;99.90
25983;DHT22;13773;48.868;10.730;2022-11-20T00:11:37;3.00;99.90
25983;DHT22;13773;48.868;10.730;2022-11-20T00:14:03;3.00;99.90
25983;DHT22;13773;48.868;10.730;2022-11-20T00:16:31;3.00;99.90
25983;DHT22;13773;48.868;10.730;2022-11-20T00:18:57;3.00;99.90
25983;DHT22;13773;48.868;10.730;2022-11-20T00:21:25;3.00;99.90
25983;DHT22;13773;48.868;10.730;2022-11-20T00:23:53;3.10;99.90
25983;DHT22;13773;48.868;10.730;2022-11-20T00:26:20;3.10;99.90
25983;DHT22;13773;48.868;10.730;2022-11-20T00:28:57;3.00;99.90
25983;DHT22;13773;48.868;10.730;2022-11-20T00:31:23;3.00;99.90
25983;DHT22;13773;48.868;10.730;2022-11-20T00:33:49;3.10;99.90
25983;DHT22;13773;48.868;10.730;2022-11-20T00:36:20;3.10;99.90
25983;DHT22;13773;48.868;10.730;2022-11-20T00:38:46;3.10;99.90
25983;DHT22;13773;48.868;10.730;2022-11-20T00:41:14;3.10;99.90
25983;DHT22;13773;48.868;10.730;2022-11-20T00:43:40;3.10;99.90
25983;DHT22;13773;48.868;10.730;2022-11-20T00:46:14;3.10;99.90
25983;DHT22;13773;48.868;10.730;2022-11-20T00:48:40;3.10;99.90
25983;DHT22;13773;48.868;10.730;2022-11-20T00:51:06;3.10;99.90
25983;DHT22;13773;48.868;10.730;2022-11-20T00:53:32;3.20;99.90
25983;DHT22;13773;48.868;10.730;2022-11-20T00:55:59;3.20;99.90
25983;DHT22;13773;48.868;10.730;2022-11-20T00:58:27;3.20;99.90
25983;DHT22;13773;48.868;10.730;2022-11-20T01:00:53;3.20;99.90
25983;DHT22;13773;48.868;10.730;2022-11-20T01:03:24;3.20;99.90
25983;DHT22;13773;48.868;10.730;2022-11-20T01:05:50;3.20;99.90
25983;DHT22;13773;48.868;10.730;2022-11-20T01:08:16;3.20;99.90
25983;DHT22;13773;48.868;10.730;2022-11-20T01:10:41;3.30;99.90
25983;DHT22;13773;48.868;10.730;2022-11-20T01:13:07;3.30;99.90
25983;DHT22;13773;48.868;10.730;2022-11-20T01:15:51;3.30;99.90
25983;DHT22;13773;48.868;10.730;2022-11-20T01:18:17;3.30;99.90
25983;DHT22;13773;48.868;10.730;2022-11-20T01:20:42;3.30;99.90
25983;DHT22;13773;48.868;10.730;2022-11-20T01:23:08;3.30;99.90
25983;DHT22;13773;48.868;10.730;2022-11-20T01:25:34;3.40;99.90
25983;DHT22;13773;48.868;10.730;2022-11-20T01:28:00;3.40;99.90
25983;DHT22;13773;48.868;10.730;2022-11-20T01:30:26;3.40;99.90
25983;DHT22;13773;48.868;10.730;2022-11-20T01:32:51;3.40;99.90
25983;DHT22;13773;48.868;10.730;2022-11-20T01:35:17;3.40;99.90
25983;DHT22;13773;48.868;10.730;2022-11-20T01:37:43;3.40;99.90
25983;DHT22;13773;48.868;10.730;2022-11-20T01:40:09;3.40;99.90
25983;DHT22;13773;48.868;10.730;2022-11-20T01:42:35;3.50;99.90
25983;DHT22;13773;48.868;10.730;2022-11-20T01:45:45;3.50;99.90
25983;DHT22;13773;48.868;10.730;2022-11-20T01:48:17;3.60;99.90
25983;DHT22;13773;48.868;10.730;2022-11-20T01:50:43;3.60;99.90
25983;DHT22;13773;48.868;10.730;2022-11-20T01:53:13;3.60;99.90
25983;DHT22;13773;48.868;10.730;2022-11-20T01:55:44;3.60;99.90
25983;DHT22;13773;48.868;10.730;2022-11-20T01:58:12;3.70;99.90
25983;DHT22;13773;48.868;10.730;2022-11-20T02:00:40;3.60;99.90
25983;DHT22;13773;48.868;10.730;2022-11-20T02:03:09;3.70;99.90
25983;DHT22;13773;48.868;10.730;2022-11-20T02:05:51;3.70;99.90
25983;DHT22;13773;48.868;10.730;2022-11-20T02:08:17;3.70;99.90
25983;DHT22;13773;48.868;10.730;2022-11-20T02:10:44;3.80;99.90
25983;DHT22;13773;48.868;10.730;2022-11-20T02:13:10;3.80;99.90
25983;DHT22;13773;48.868;10.730;2022-11-20T02:15:54;3.80;99.90
25983;DHT22;13773;48.868;10.730;2022-11-20T02:18:21;3.80;99.90
25983;DHT22;13773;48.868;10.730;2022-11-20T02:20:50;3.80;99.90
25983;DHT22;13773;48.868;10.730;2022-11-20T02:23:38;3.90;99.90
25983;DHT22;13773;48.868;10.730;2022-11-20T02:26:07;3.90;99.90
25983;DHT22;13773;48.868;10.730;2022-11-20T02:28:34;3.90;99.90
25983;DHT22;13773;48.868;10.730;2022-11-20T02:31:00;4.00;99.90
25983;DHT22;13773;48.868;10.730;2022-11-20T02:33:26;4.00;99.90
25983;DHT22;13773;48.868;10.730;2022-11-20T02:35:52;4.00;99.90
25983;DHT22;13773;48.868;10.730;2022-11-20T02:38:18;4.00;99.90
25983;DHT22;13773;48.868;10.730;2022-11-20T02:40:43;4.10;99.90
25983;DHT22;13773;48.868;10.730;2022-11-20T02:43:09;4.00;99.90
25983;DHT22;13773;48.868;10.730;2022-11-20T02:45:35;4.10;99.90
25983;DHT22;13773;48.868;10.730;2022-11-20T02:48:01;4.10;99.90
25983;DHT22;13773;48.868;10.730;2022-11-20T02:50:27;4.10;99.90
25983;DHT22;13773;48.868;10.730;2022-11-20T02:52:52;4.10;99.90
25983;DHT22;13773;48.868;10.730;2022-11-20T02:55:18;4.10;99.90
25983;DHT22;13773;48.868;10.730;2022-11-20T02:57:44;4.10;99.90
25983;DHT22;13773;48.868;10.730;2022-11-20T03:00:10;4.10;99.90
25983;DHT22;13773;48.868;10.730;2022-11-20T03:02:36;4.10;99.90
25983;DHT22;13773;48.868;10.730;2022-11-20T03:05:02;4.10;99.90
25983;DHT22;13773;48.868;10.730;2022-11-20T03:07:28;4.20;99.90
25983;DHT22;13773;48.868;10.730;2022-11-20T03:09:53;4.10;99.90
25983;DHT22;13773;48.868;10.730;2022-11-20T03:12:19;4.20;99.90
25983;DHT22;13773;48.868;10.730;2022-11-20T03:14:45;4.20;99.90
25983;DHT22;13773;48.868;10.730;2022-11-20T03:17:10;4.20;99.90
25983;DHT22;13773;48.868;10.730;2022-11-20T03:19:36;4.20;99.90
25983;DHT22;13773;48.868;10.730;2022-11-20T03:22:02;4.20;99.90
25983;DHT22;13773;48.868;10.730;2022-11-20T03:24:28;4.20;99.90
25983;DHT22;13773;48.868;10.730;2022-11-20T03:26:54;4.20;99.90
25983;DHT22;13773;48.868;10.730;2022-11-20T03:29:19;4.20;99.90
25983;DHT22;13773;48.868;10.730;2022-11-20T03:31:45;4.30;99.90
25983;DHT22;13773;48.868;10.730;2022-11-20T03:34:11;4.20;99.90
25983;DHT22;13773;48.868;10.730;2022-11-20T03:36:40;4.20;99.90
25983;DHT22;13773;48.868;10.730;2022-11-20T03:39:07;4.30;99.90
25983;DHT22;13773;48.868;10.730;2022-11-20T03:41:37;4.30;99.90
25983;DHT22;13773;48.868;10.730;2022-11-20T03:44:05;4.30;99.90
25983;DHT22;13773;48.868;10.730;2022-11-20T03:46:31;4.30;99.90
25983;DHT22;13773;48.868;10.730;2022-11-20T03:48:58;4.30;99.90
25983;DHT22;13773;48.868;10.730;2022-11-20T03:51:26;4.30;99.90
25983;DHT22;13773;48.868;10.730;2022-11-20T03:53:54;4.30;99.90
25983;DHT22;13773;48.868;10.730;2022-11-20T03:56:23;4.30;99.90
25983;DHT22;13773;48.868;10.730;2022-11-20T03:58:49;4.30;99.90
25983;DHT22;13773;48.868;10.730;2022-11-20T04:01:20;6.80;99.90
25983;DHT22;13773;48.868;10.730;2022-11-20T04:03:46;4.30;99.90
25983;DHT22;13773;48.868;10.730;2022-11-20T04:06:15;4.30;99.90
25983;DHT22;13773;48.868;10.730;2022-11-20T04:08:42;4.20;99.90
25983;DHT22;13773;48.868;10.730;2022-11-20T04:13:37;4.20;99.90
25983;DHT22;13773;48.868;10.730;2022-11-20T04:16:04;4.20;99.90
25983;DHT22;13773;48.868;10.730;2022-11-20T04:18:30;4.20;99.90
25983;DHT22;13773;48.868;10.730;2022-11-20T04:20:57;4.20;99.90
25983;DHT22;13773;48.868;10.730;2022-11-20T04:23:23;4.20;99.90
25983;DHT22;13773;48.868;10.730;2022-11-20T04:25:49;4.20;99.90
25983;DHT22;13773;48.868;10.730;2022-11-20T04:28:15;4.10;99.90
25983;DHT22;13773;48.868;10.730;2022-11-20T04:30:40;4.10;99.90
25983;DHT22;13773;48.868;10.730;2022-11-20T04:33:06;4.10;99.90
25983;DHT22;13773;48.868;10.730;2022-11-20T04:35:36;4.10;99.90
25983;DHT22;13773;48.868;10.730;2022-11-20T04:38:02;4.10;99.90
25983;DHT22;13773;48.868;10.730;2022-11-20T04:40:28;4.10;99.90
25983;DHT22;13773;48.868;10.730;2022-11-20T04:42:54;4.10;99.90
25983;DHT22;13773;48.868;10.730;2022-11-20T04:45:20;4.10;99.90
25983;DHT22;13773;48.868;10.730;2022-11-20T04:47:46;4.10;99.90
25983;DHT22;13773;48.868;10.730;2022-11-20T04:50:12;4.10;99.90
25983;DHT22;13773;48.868;10.730;2022-11-20T04:52:37;4.00;99.90
25983;DHT22;13773;48.868;10.730;2022-11-20T04:55:03;4.00;99.90
25983;DHT22;13773;48.868;10.730;2022-11-20T04:57:29;4.00;99.90
25983;DHT22;13773;48.868;10.730;2022-11-20T04:59:55;4.00;99.90
25983;DHT22;13773;48.868;10.730;2022-11-20T05:02:21;4.00;99.90
25983;DHT22;13773;48.868;10.730;2022-11-20T05:04:47;4.00;99.90
25983;DHT22;13773;48.868;10.730;2022-11-20T05:07:12;4.00;99.90
25983;DHT22;13773;48.868;10.730;2022-11-20T05:09:38;4.00;99.90
25983;DHT22;13773;48.868;10.730;2022-11-20T05:12:06;3.90;99.90
25983;DHT22;13773;48.868;10.730;2022-11-20T05:14:32;3.90;99.90
25983;DHT22;13773;48.868;10.730;2022-11-20T05:16:58;3.90;99.90
25983;DHT22;13773;48.868;10.730;2022-11-20T05:19:23;3.90;99.90
25983;DHT22;13773;48.868;10.730;2022-11-20T05:21:49;3.90;99.90
25983;DHT22;13773;48.868;10.730;2022-11-20T05:24:15;3.90;99.90
25983;DHT22;13773;48.868;10.730;2022-11-20T05:26:40;3.90;99.90
25983;DHT22;13773;48.868;10.730;2022-11-20T05:29:06;3.90;99.90
25983;DHT22;13773;48.868;10.730;2022-11-20T05:31:32;3.90;99.90
25983;DHT22;13773;48.868;10.730;2022-11-20T05:33:57;3.80;99.90
25983;DHT22;13773;48.868;10.730;2022-11-20T05:36:23;3.80;99.90
25983;DHT22;13773;48.868;10.730;2022-11-20T05:38:49;3.80;99.90
25983;DHT22;13773;48.868;10.730;2022-11-20T05:41:17;3.90;99.90
25983;DHT22;13773;48.868;10.730;2022-11-20T05:43:44;3.80;99.90
25983;DHT22;13773;48.868;10.730;2022-11-20T05:46:12;3.80;99.90
25983;DHT22;13773;48.868;10.730;2022-11-20T05:48:39;3.80;99.90
25983;DHT22;13773;48.868;10.730;2022-11-20T05:51:07;3.80;99.90
25983;DHT22;13773;48.868;10.730;2022-11-20T05:53:34;3.70;99.90
25983;DHT22;13773;48.868;10.730;2022-11-20T05:58:32;3.70;99.90
25983;DHT22;13773;48.868;10.730;2022-11-20T06:01:09;3.70;99.90
25983;DHT22;13773;48.868;10.730;2022-11-20T06:03:36;3.70;99.90
25983;DHT22;13773;48.868;10.730;2022-11-20T06:06:03;3.70;99.90
25983;DHT22;13773;48.868;10.730;2022-11-20T06:08:29;3.70;99.90
25983;DHT22;13773;48.868;10.730;2022-11-20T06:10:56;3.70;99.90
25983;DHT22;13773;48.868;10.730;2022-11-20T06:13:22;3.70;99.90
25983;DHT22;13773;48.868;10.730;2022-11-20T06:15:51;3.70;99.90
25983;DHT22;13773;48.868;10.730;2022-11-20T06:18:18;3.70;99.90
25983;DHT22;13773;48.868;10.730;2022-11-20T06:20:44;3.70;99.90
25983;DHT22;13773;48.868;10.730;2022-11-20T06:23:10;3.70;99.90
25983;DHT22;13773;48.868;10.730;2022-11-20T06:25:40;3.70;99.90
25983;DHT22;13773;48.868;10.730;2022-11-20T06:28:06;3.70;99.90
25983;DHT22;13773;48.868;10.730;2022-11-20T06:30:32;3.70;99.90
25983;DHT22;13773;48.868;10.730;2022-11-20T06:32:58;3.70;99.90
25983;DHT22;13773;48.868;10.730;2022-11-20T06:35:23;3.70;99.90
25983;DHT22;13773;48.868;10.730;2022-11-20T06:37:49;3.70;99.90
25983;DHT22;13773;48.868;10.730;2022-11-20T06:40:15;3.70;99.90
25983;DHT22;13773;48.868;10.730;2022-11-20T06:42:40;3.70;99.90
25983;DHT22;13773;48.868;10.730;2022-11-20T06:45:07;3.70;99.90
25983;DHT22;13773;48.868;10.730;2022-11-20T06:47:33;3.70;99.90
25983;DHT22;13773;48.868;10.730;2022-11-20T06:49:58;3.80;99.90
25983;DHT22;13773;48.868;10.730;2022-11-20T06:52:24;3.80;99.90
25983;DHT22;13773;48.868;10.730;2022-11-20T06:54:50;3.80;99.90
25983;DHT22;13773;48.868;10.730;2022-11-20T06:57:15;3.80;99.90
25983;DHT22;13773;48.868;10.730;2022-11-20T06:59:41;3.80;99.90
25983;DHT22;13773;48.868;10.730;2022-11-20T07:02:12;3.90;99.90
25983;DHT22;13773;48.868;10.730;2022-11-20T07:04:39;3.90;99.90
25983;DHT22;13773;48.868;10.730;2022-11-20T07:07:05;3.90;99.90
25983;DHT22;13773;48.868;10.730;2022-11-20T07:09:32;3.90;99.90
25983;DHT22;13773;48.868;10.730;2022-11-20T07:11:58;3.90;99.90
25983;DHT22;13773;48.868;10.730;2022-11-20T07:14:23;3.90;99.90
25983;DHT22;13773;48.868;10.730;2022-11-20T07:16:49;4.00;99.90
25983;DHT22;13773;48.868;10.730;2022-11-20T07:19:15;4.00;99.90
25983;DHT22;13773;48.868;10.730;2022-11-20T07:21:41;4.00;99.90
25983;DHT22;13773;48.868;10.730;2022-11-20T07:24:06;4.00;99.90
25983;DHT22;13773;48.868;10.730;2022-11-20T07:26:32;4.00;99.90
25983;DHT22;13773;48.868;10.730;2022-11-20T07:28:58;4.00;99.90
25983;DHT22;13773;48.868;10.730;2022-11-20T07:31:23;4.10;99.90
25983;DHT22;13773;48.868;10.730;2022-11-20T07:33:49;4.10;99.90
25983;DHT22;13773;48.868;10.730;2022-11-20T07:36:15;4.10;99.90
25983;DHT22;13773;48.868;10.730;2022-11-20T07:38:41;4.10;99.90
25983;DHT22;13773;48.868;10.730;2022-11-20T07:41:06;4.20;99.90
25983;DHT22;13773;48.868;10.730;2022-11-20T07:43:32;4.20;99.90
25983;DHT22;13773;48.868;10.730;2022-11-20T07:45:58;4.20;99.90
25983;DHT22;13773;48.868;10.730;2022-11-20T07:48:25;4.10;99.90
25983;DHT22;13773;48.868;10.730;2022-11-20T07:50:56;4.20;99.90
25983;DHT22;13773;48.868;10.730;2022-11-20T07:53:22;4.20;99.90
25983;DHT22;13773;48.868;10.730;2022-11-20T07:55:48;4.20;99.90
25983;DHT22;13773;48.868;10.730;2022-11-20T07:58:14;4.30;99.90
25983;DHT22;13773;48.868;10.730;2022-11-20T08:00:41;4.30;99.90
25983;DHT22;13773;48.868;10.730;2022-11-20T08:03:06;4.40;99.90
25983;DHT22;13773;48.868;10.730;2022-11-20T08:05:33;4.40;99.90
25983;DHT22;13773;48.868;10.730;2022-11-20T08:07:58;4.40;99.90
25983;DHT22;13773;48.868;10.730;2022-11-20T08:10:24;4.40;99.90
25983;DHT22;13773;48.868;10.730;2022-11-20T08:12:52;4.40;99.90
25983;DHT22;13773;48.868;10.730;2022-11-20T08:15:38;4.40;99.90
25983;DHT22;13773;48.868;10.730;2022-11-20T08:18:06;4.40;99.90
25983;DHT22;13773;48.868;10.730;2022-11-20T08:20:33;4.50;99.90
25983;DHT22;13773;48.868;10.730;2022-11-20T08:23:06;4.40;99.90
25983;DHT22;13773;48.868;10.730;2022-11-20T08:25:33;4.40;99.90
25983;DHT22;13773;48.868;10.730;2022-11-20T08:28:00;4.40;99.90
25983;DHT22;13773;48.868;10.730;2022-11-20T08:30:26;4.30;99.90
25983;DHT22;13773;48.868;10.730;2022-11-20T08:32:53;4.30;99.90
25983;DHT22;13773;48.868;10.730;2022-11-20T08:35:19;4.30;99.90
25983;DHT22;13773;48.868;10.730;2022-11-20T08:37:48;4.30;99.90
25983;DHT22;13773;48.868;10.730;2022-11-20T08:40:15;4.30;99.90
25983;DHT22;13773;48.868;10.730;2022-11-20T08:42:48;4.40;99.90
25983;DHT22;13773;48.868;10.730;2022-11-20T08:45:15;4.50;99.90
25983;DHT22;13773;48.868;10.730;2022-11-20T08:47:42;4.50;99.90
25983;DHT22;13773;48.868;10.730;2022-11-20T08:50:11;4.50;99.90
25983;DHT22;13773;48.868;10.730;2022-11-20T08:52:38;4.50;99.90
25983;DHT22;13773;48.868;10.730;2022-11-20T08:55:04;4.40;99.90
25983;DHT22;13773;48.868;10.730;2022-11-20T08:57:37;4.40;99.90
25983;DHT22;13773;48.868;10.730;2022-11-20T09:00:05;4.40;99.90
25983;DHT22;13773;48.868;10.730;2022-11-20T09:02:31;4.40;99.90
25983;DHT22;13773;48.868;10.730;2022-11-20T09:04:57;4.40;99.90
25983;DHT22;13773;48.868;10.730;2022-11-20T09:07:23;4.40;99.90
25983;DHT22;13773;48.868;10.730;2022-11-20T09:09:49;4.50;99.90
25983;DHT22;13773;48.868;10.730;2022-11-20T09:12:15;4.50;99.90
25983;DHT22;13773;48.868;10.730;2022-11-20T09:14:41;4.50;99.90
25983;DHT22;13773;48.868;10.730;2022-11-20T09:17:06;4.60;99.90
25983;DHT22;13773;48.868;10.730;2022-11-20T09:19:33;4.60;99.90
25983;DHT22;13773;48.868;10.730;2022-11-20T09:21:59;4.70;99.90
25983;DHT22;13773;48.868;10.730;2022-11-20T09:24:26;4.60;99.90
25983;DHT22;13773;48.868;10.730;2022-11-20T09:26:52;4.70;99.90
25983;DHT22;13773;48.868;10.730;2022-11-20T09:29:17;4.70;99.90
25983;DHT22;13773;48.868;10.730;2022-11-20T09:31:43;4.70;99.90
25983;DHT22;13773;48.868;10.730;2022-11-20T09:34:09;4.70;99.90
25983;DHT22;13773;48.868;10.730;2022-11-20T09:36:35;4.70;99.90
25983;DHT22;13773;48.868;10.730;2022-11-20T09:39:01;4.80;99.90
25983;DHT22;13773;48.868;10.730;2022-11-20T09:47:22;4.80;99.90
25983;DHT22;13773;48.868;10.730;2022-11-20T09:55:02;4.60;99.90
25983;DHT22;13773;48.868;10.730;2022-11-20T09:57:37;4.60;99.90
25983;DHT22;13773;48.868;10.730;2022-11-20T10:00:08;4.60;99.90
25983;DHT22;13773;48.868;10.730;2022-11-20T10:05:30;4.60;99.90
25983;DHT22;13773;48.868;10.730;2022-11-20T10:13:43;4.50;99.90
25983;DHT22;13773;48.868;10.730;2022-11-20T10:16:27;4.50;99.90
25983;DHT22;13773;48.868;10.730;2022-11-20T10:21:57;4.80;99.90
25983;DHT22;13773;48.868;10.730;2022-11-20T10:29:40;4.70;99.90
25983;DHT22;13773;48.868;10.730;2022-11-20T10:32:17;4.60;99.90
25983;DHT22;13773;48.868;10.730;2022-11-20T10:35:14;4.60;99.90
25983;DHT22;13773;48.868;10.730;2022-11-20T10:37:37;4.60;99.90
25983;DHT22;13773;48.868;10.730;2022-11-20T10:40:35;4.60;99.90
25983;DHT22;13773;48.868;10.730;2022-11-20T10:43:13;4.50;99.90
25983;DHT22;13773;48.868;10.730;2022-11-20T10:46:03;4.50;99.90
25983;DHT22;13773;48.868;10.730;2022-11-20T10:48:31;4.50;99.90
25983;DHT22;13773;48.868;10.730;2022-11-20T10:51:15;4.50;99.90
25983;DHT22;13773;48.868;10.730;2022-11-20T10:54:10;4.60;99.90
25983;DHT22;13773;48.868;10.730;2022-11-20T10:56:52;4.60;99.90
25983;DHT22;13773;48.868;10.730;2022-11-20T11:02:42;4.70;99.90
25983;DHT22;13773;48.868;10.730;2022-11-20T11:05:33;4.70;99.90
25983;DHT22;13773;48.868;10.730;2022-11-20T11:08:00;4.70;99.90
25983;DHT22;13773;48.868;10.730;2022-11-20T11:10:36;4.70;99.90
25983;DHT22;13773;48.868;10.730;2022-11-20T11:13:03;4.70;99.90
25983;DHT22;13773;48.868;10.730;2022-11-20T11:15:38;4.70;99.90
25983;DHT22;13773;48.868;10.730;2022-11-20T11:18:05;4.70;99.90
25983;DHT22;13773;48.868;10.730;2022-11-20T11:20:34;4.70;99.90
25983;DHT22;13773;48.868;10.730;2022-11-20T11:23:00;4.80;99.90
25983;DHT22;13773;48.868;10.730;2022-11-20T11:25:34;4.90;99.90
25983;DHT22;13773;48.868;10.730;2022-11-20T11:30:44;5.00;99.90
25983;DHT22;13773;48.868;10.730;2022-11-20T11:35:49;5.10;99.90
25983;DHT22;13773;48.868;10.730;2022-11-20T11:38:32;5.20;99.90
25983;DHT22;13773;48.868;10.730;2022-11-20T11:41:00;5.20;99.90
25983;DHT22;13773;48.868;10.730;2022-11-20T11:43:29;5.10;99.90
25983;DHT22;13773;48.868;10.730;2022-11-20T11:46:27;5.20;99.90
25983;DHT22;13773;48.868;10.730;2022-11-20T11:48:59;5.20;99.90
25983;DHT22;13773;48.868;10.730;2022-11-20T11:51:47;5.40;99.90
25983;DHT22;13773;48.868;10.730;2022-11-20T11:54:37;5.50;99.90
25983;DHT22;13773;48.868;10.730;2022-11-20T12:02:49;5.70;99.90
25983;DHT22;13773;48.868;10.730;2022-11-20T12:05:34;5.60;99.90
25983;DHT22;13773;48.868;10.730;2022-11-20T12:08:30;5.50;99.90
25983;DHT22;13773;48.868;10.730;2022-11-20T12:13:57;5.40;99.90
25983;DHT22;13773;48.868;10.730;2022-11-20T12:16:24;5.40;99.90
25983;DHT22;13773;48.868;10.730;2022-11-20T12:18:51;5.40;99.90
25983;DHT22;13773;48.868;10.730;2022-11-20T12:57:24;5.70;99.90
25983;DHT22;13773;48.868;10.730;2022-11-20T13:00:14;5.70;99.90
25983;DHT22;13773;48.868;10.730;2022-11-20T13:08:50;5.60;99.90
25983;DHT22;13773;48.868;10.730;2022-11-20T13:11:31;5.50;99.90
25983;DHT22;13773;48.868;10.730;2022-11-20T13:19:16;5.50;99.90
25983;DHT22;13773;48.868;10.730;2022-11-20T13:21:44;5.50;99.90
25983;DHT22;13773;48.868;10.730;2022-11-20T13:29:28;5.50;99.90
25983;DHT22;13773;48.868;10.730;2022-11-20T13:32:03;5.60;99.90
25983;DHT22;13773;48.868;10.730;2022-11-20T13:34:30;5.60;99.90
25983;DHT22;13773;48.868;10.730;2022-11-20T13:36:57;5.60;99.90
25983;DHT22;13773;48.868;10.730;2022-11-20T13:39:35;5.60;99.90
25983;DHT22;13773;48.868;10.730;2022-11-20T13:44:44;5.60;99.90
25983;DHT22;13773;48.868;10.730;2022-11-20T13:47:25;5.60;99.90
25983;DHT22;13773;48.868;10.730;2022-11-20T13:49:52;5.60;99.90
25983;DHT22;13773;48.868;10.730;2022-11-20T13:55:41;5.50;99.90
25983;DHT22;13773;48.868;10.730;2022-11-20T13:58:25;5.80;99.90
25983;DHT22;13773;48.868;10.730;2022-11-20T14:01:10;5.90;99.90
25983;DHT22;13773;48.868;10.730;2022-11-20T14:03:40;6.10;99.90
25983;DHT22;13773;48.868;10.730;2022-11-20T14:06:34;6.40;99.90
25983;DHT22;13773;48.868;10.730;2022-11-20T14:08:58;6.60;99.90
25983;DHT22;13773;48.868;10.730;2022-11-20T14:11:28;6.60;99.90
25983;DHT22;13773;48.868;10.730;2022-11-20T14:14:12;6.40;99.90
25983;DHT22;13773;48.868;10.730;2022-11-20T14:16:39;6.30;99.90
25983;DHT22;13773;48.868;10.730;2022-11-20T14:21:47;6.20;99.90
25983;DHT22;13773;48.868;10.730;2022-11-20T14:24:17;6.20;99.90
25983;DHT22;13773;48.868;10.730;2022-11-20T14:26:44;6.10;99.90
25983;DHT22;13773;48.868;10.730;2022-11-20T14:29:16;6.00;99.90
25983;DHT22;13773;48.868;10.730;2022-11-20T14:31:44;6.00;99.90
25983;DHT22;13773;48.868;10.730;2022-11-20T14:34:31;6.00;99.90
25983;DHT22;13773;48.868;10.730;2022-11-20T14:37:03;6.00;99.90
25983;DHT22;13773;48.868;10.730;2022-11-20T14:39:34;5.90;99.90
25983;DHT22;13773;48.868;10.730;2022-11-20T14:42:01;5.90;99.90
25983;DHT22;13773;48.868;10.730;2022-11-20T14:44:30;5.90;99.90
25983;DHT22;13773;48.868;10.730;2022-11-20T14:46:57;5.80;99.90
25983;DHT22;13773;48.868;10.730;2022-11-20T14:49:25;5.90;99.90
25983;DHT22;13773;48.868;10.730;2022-11-20T14:52:21;5.80;99.90
25983;DHT22;13773;48.868;10.730;2022-11-20T14:54:54;5.80;99.90
25983;DHT22;13773;48.868;10.730;2022-11-20T15:02:46;5.90;99.90
25983;DHT22;13773;48.868;10.730;2022-11-20T15:05:13;5.80;99.90
25983;DHT22;13773;48.868;10.730;2022-11-20T15:07:44;5.80;99.90
25983;DHT22;13773;48.868;10.730;2022-11-20T15:10:26;5.70;99.90
25983;DHT22;13773;48.868;10.730;2022-11-20T15:13:01;5.60;99.90
25983;DHT22;13773;48.868;10.730;2022-11-20T15:15:46;5.40;99.90
25983;DHT22;13773;48.868;10.730;2022-11-20T15:18:15;5.60;99.90
25983;DHT22;13773;48.868;10.730;2022-11-20T15:20:42;5.50;99.90
25983;DHT22;13773;48.868;10.730;2022-11-20T15:23:13;5.40;99.90
25983;DHT22;13773;48.868;10.730;2022-11-20T15:25:40;5.30;99.90
25983;DHT22;13773;48.868;10.730;2022-11-20T15:30:48;5.20;99.90
25983;DHT22;13773;48.868;10.730;2022-11-20T15:33:16;5.10;99.90
25983;DHT22;13773;48.868;10.730;2022-11-20T15:35:42;5.00;99.90
25983;DHT22;13773;48.868;10.730;2022-11-20T15:38:07;4.90;99.90
25983;DHT22;13773;48.868;10.730;2022-11-20T15:40:33;4.90;99.90
25983;DHT22;13773;48.868;10.730;2022-11-20T15:42:59;4.90;99.90
25983;DHT22;13773;48.868;10.730;2022-11-20T15:45:40;4.90;99.90
25983;DHT22;13773;48.868;10.730;2022-11-20T15:48:22;4.90;99.90
25983;DHT22;13773;48.868;10.730;2022-11-20T15:53:26;4.80;99.90
25983;DHT22;13773;48.868;10.730;2022-11-20T15:55:51;4.70;99.90
25983;DHT22;13773;48.868;10.730;2022-11-20T15:58:17;4.60;99.90
25983;DHT22;13773;48.868;10.730;2022-11-20T16:00:43;4.50;99.90
25983;DHT22;13773;48.868;10.730;2022-11-20T16:03:11;4.40;99.90
25983;DHT22;13773;48.868;10.730;2022-11-20T16:05:37;4.30;99.90
25983;DHT22;13773;48.868;10.730;2022-11-20T16:08:03;4.30;99.90
25983;DHT22;13773;48.868;10.730;2022-11-20T16:10:28;4.20;99.90
25983;DHT22;13773;48.868;10.730;2022-11-20T16:12:54;4.20;99.90
25983;DHT22;13773;48.868;10.730;2022-11-20T16:15:39;4.20;99.90
25983;DHT22;13773;48.868;10.730;2022-11-20T16:18:11;4.10;99.90
25983;DHT22;13773;48.868;10.730;2022-11-20T16:20:37;4.20;99.90
25983;DHT22;13773;48.868;10.730;2022-11-20T16:23:04;2.90;99.90
25983;DHT22;13773;48.868;10.730;2022-11-20T16:25:30;4.20;99.90
25983;DHT22;13773;48.868;10.730;2022-11-20T16:27:55;4.20;99.90
25983;DHT22;13773;48.868;10.730;2022-11-20T16:30:21;4.20;99.90
25983;DHT22;13773;48.868;10.730;2022-11-20T16:32:47;4.20;99.90
25983;DHT22;13773;48.868;10.730;2022-11-20T16:35:14;4.20;99.90
25983;DHT22;13773;48.868;10.730;2022-11-20T16:37:40;4.20;99.90
25983;DHT22;13773;48.868;10.730;2022-11-20T16:40:06;4.10;99.90
25983;DHT22;13773;48.868;10.730;2022-11-20T16:42:35;4.10;99.90
25983;DHT22;13773;48.868;10.730;2022-11-20T16:45:01;4.00;99.90
25983;DHT22;13773;48.868;10.730;2022-11-20T16:47:27;4.00;99.90
25983;DHT22;13773;48.868;10.730;2022-11-20T16:49:53;3.90;99.90
25983;DHT22;13773;48.868;10.730;2022-11-20T16:52:19;3.90;99.90
25983;DHT22;13773;48.868;10.730;2022-11-20T16:54:44;3.90;99.90
25983;DHT22;13773;48.868;10.730;2022-11-20T16:57:10;3.80;99.90
25983;DHT22;13773;48.868;10.730;2022-11-20T16:59:36;3.90;99.90
25983;DHT22;13773;48.868;10.730;2022-11-20T17:02:02;3.80;99.90
25983;DHT22;13773;48.868;10.730;2022-11-20T17:04:28;3.80;99.90
25983;DHT22;13773;48.868;10.730;2022-11-20T17:06:53;3.70;99.90
25983;DHT22;13773;48.868;10.730;2022-11-20T17:09:19;3.60;99.90
25983;DHT22;13773;48.868;10.730;2022-11-20T17:11:45;3.60;99.90
25983;DHT22;13773;48.868;10.730;2022-11-20T17:14:12;3.60;99.90
25983;DHT22;13773;48.868;10.730;2022-11-20T17:16:38;3.70;99.90
25983;DHT22;13773;48.868;10.730;2022-11-20T17:19:04;3.70;99.90
25983;DHT22;13773;48.868;10.730;2022-11-20T17:21:31;3.60;99.90
25983;DHT22;13773;48.868;10.730;2022-11-20T17:24:00;3.50;99.90
25983;DHT22;13773;48.868;10.730;2022-11-20T17:26:29;3.50;99.90
25983;DHT22;13773;48.868;10.730;2022-11-20T17:29:04;3.40;99.90
25983;DHT22;13773;48.868;10.730;2022-11-20T17:31:31;3.40;99.90
25983;DHT22;13773;48.868;10.730;2022-11-20T17:33:58;3.40;99.90
25983;DHT22;13773;48.868;10.730;2022-11-20T17:36:27;3.50;99.90
25983;DHT22;13773;48.868;10.730;2022-11-20T17:38:53;3.40;99.90
25983;DHT22;13773;48.868;10.730;2022-11-20T17:41:21;3.30;99.90
25983;DHT22;13773;48.868;10.730;2022-11-20T17:43:48;3.30;99.90